sensor_id;sensor_type;location;lat;lon;timestamp;temperature;humidity
41437;DHT22;27178;49.460;10.850;2023-02-28T00:01:29;2.50;63.70
41437;DHT22;27178;49.460;10.850;2023-02-28T00:03:58;2.50;63.80
41437;DHT22;27178;49.460;10.850;2023-02-28T00:06:27;2.40;63.70
41437;DHT22;27178;49.460;10.850;2023-02-28T00:08:56;2.40;63.60
41437;DHT22;27178;49.460;10.850;2023-02-28T00:11:25;2.40;63.80
41437;DHT22;27178;49.460;10.850;2023-02-28T00:13:54;2.40;63.70
41437;DHT22;27178;49.460;10.850;2023-02-28T00:16:23;2.40;63.70
41437;DHT22;27178;49.460;10.850;2023-02-28T00:18:51;2.40;63.60
41437;DHT22;27178;49.460;10.850;2023-02-28T00:21:20;2.30;63.80
41437;DHT22;27178;49.460;10.850;2023-02-28T00:23:48;2.40;63.90
41437;DHT22;27178;49.460;10.850;2023-02-28T00:26:18;2.40;63.90
41437;DHT22;27178;49.460;10.850;2023-02-28T00:28:47;2.30;64.00
41437;DHT22;27178;49.460;10.850;2023-02-28T00:31:16;2.30;64.90
41437;DHT22;27178;49.460;10.850;2023-02-28T00:33:45;2.30;64.00
41437;DHT22;27178;49.460;10.850;2023-02-28T00:36:13;2.30;64.00
41437;DHT22;27178;49.460;10.850;2023-02-28T00:38:41;2.30;64.00
41437;DHT22;27178;49.460;10.850;2023-02-28T00:41:10;2.30;64.00
41437;DHT22;27178;49.460;10.850;2023-02-28T00:43:39;2.20;64.00
41437;DHT22;27178;49.460;10.850;2023-02-28T00:46:08;2.20;64.20
41437;DHT22;27178;49.460;10.850;2023-02-28T00:48:36;2.20;64.20
41437;DHT22;27178;49.460;10.850;2023-02-28T00:51:05;2.20;64.40
41437;DHT22;27178;49.460;10.850;2023-02-28T00:53:33;2.20;64.50
41437;DHT22;27178;49.460;10.850;2023-02-28T00:56:01;2.20;64.50
41437;DHT22;27178;49.460;10.850;2023-02-28T00:58:30;2.10;64.40
41437;DHT22;27178;49.460;10.850;2023-02-28T01:00:59;2.10;64.40
41437;DHT22;27178;49.460;10.850;2023-02-28T01:03:28;2.10;64.50
41437;DHT22;27178;49.460;10.850;2023-02-28T01:05:56;2.10;64.50
41437;DHT22;27178;49.460;10.850;2023-02-28T01:08:25;2.10;64.50
41437;DHT22;27178;49.460;10.850;2023-02-28T01:10:54;2.00;64.50
41437;DHT22;27178;49.460;10.850;2023-02-28T01:13:22;2.00;64.50
41437;DHT22;27178;49.460;10.850;2023-02-28T01:15:54;2.00;64.70
41437;DHT22;27178;49.460;10.850;2023-02-28T01:18:24;2.00;64.90
41437;DHT22;27178;49.460;10.850;2023-02-28T01:20:53;2.00;64.80
41437;DHT22;27178;49.460;10.850;2023-02-28T01:23:22;2.00;64.80
41437;DHT22;27178;49.460;10.850;2023-02-28T01:25:51;2.00;65.00
41437;DHT22;27178;49.460;10.850;2023-02-28T01:28:20;1.90;65.00
41437;DHT22;27178;49.460;10.850;2023-02-28T01:30:48;2.00;64.80
41437;DHT22;27178;49.460;10.850;2023-02-28T01:33:17;1.90;64.90
41437;DHT22;27178;49.460;10.850;2023-02-28T01:35:47;1.90;65.00
41437;DHT22;27178;49.460;10.850;2023-02-28T01:38:15;1.90;65.10
41437;DHT22;27178;49.460;10.850;2023-02-28T01:40:49;1.90;65.00
41437;DHT22;27178;49.460;10.850;2023-02-28T01:43:22;1.90;65.20
41437;DHT22;27178;49.460;10.850;2023-02-28T01:45:52;1.90;65.20
41437;DHT22;27178;49.460;10.850;2023-02-28T01:48:24;1.90;65.30
41437;DHT22;27178;49.460;10.850;2023-02-28T01:50:57;1.80;65.40
41437;DHT22;27178;49.460;10.850;2023-02-28T01:53:31;1.80;65.40
41437;DHT22;27178;49.460;10.850;2023-02-28T01:56:00;1.90;65.50
41437;DHT22;27178;49.460;10.850;2023-02-28T01:58:32;1.80;65.40
41437;DHT22;27178;49.460;10.850;2023-02-28T02:01:00;1.80;65.40
41437;DHT22;27178;49.460;10.850;2023-02-28T02:03:30;1.80;65.50
41437;DHT22;27178;49.460;10.850;2023-02-28T02:06:00;1.90;65.00
41437;DHT22;27178;49.460;10.850;2023-02-28T02:08:30;1.80;65.50
41437;DHT22;27178;49.460;10.850;2023-02-28T02:11:00;1.80;65.60
41437;DHT22;27178;49.460;10.850;2023-02-28T02:13:37;1.80;65.80
41437;DHT22;27178;49.460;10.850;2023-02-28T02:16:19;1.80;65.80
41437;DHT22;27178;49.460;10.850;2023-02-28T02:18:53;1.80;65.80
41437;DHT22;27178;49.460;10.850;2023-02-28T02:28:49;1.80;66.00
41437;DHT22;27178;49.460;10.850;2023-02-28T02:31:33;1.80;65.90
41437;DHT22;27178;49.460;10.850;2023-02-28T02:34:26;1.80;65.80
41437;DHT22;27178;49.460;10.850;2023-02-28T02:37:03;1.80;65.90
41437;DHT22;27178;49.460;10.850;2023-02-28T02:39:38;1.80;65.80
41437;DHT22;27178;49.460;10.850;2023-02-28T02:42:14;1.80;65.80
41437;DHT22;27178;49.460;10.850;2023-02-28T02:44:47;1.70;65.80
41437;DHT22;27178;49.460;10.850;2023-02-28T02:47:19;1.70;65.90
41437;DHT22;27178;49.460;10.850;2023-02-28T02:49:51;1.70;66.00
41437;DHT22;27178;49.460;10.850;2023-02-28T02:52:23;1.70;66.00
41437;DHT22;27178;49.460;10.850;2023-02-28T02:54:54;1.70;66.10
41437;DHT22;27178;49.460;10.850;2023-02-28T02:57:30;1.70;66.20
41437;DHT22;27178;49.460;10.850;2023-02-28T03:00:00;1.60;66.10
41437;DHT22;27178;49.460;10.850;2023-02-28T03:02:32;1.70;66.30
41437;DHT22;27178;49.460;10.850;2023-02-28T03:05:05;1.60;66.30
41437;DHT22;27178;49.460;10.850;2023-02-28T03:07:35;1.60;66.30
41437;DHT22;27178;49.460;10.850;2023-02-28T03:13:29;1.70;66.70
41437;DHT22;27178;49.460;10.850;2023-02-28T03:16:15;1.60;66.50
41437;DHT22;27178;49.460;10.850;2023-02-28T03:18:53;1.70;66.50
41437;DHT22;27178;49.460;10.850;2023-02-28T03:21:30;1.70;66.40
41437;DHT22;27178;49.460;10.850;2023-02-28T03:24:04;1.60;66.40
41437;DHT22;27178;49.460;10.850;2023-02-28T03:26:40;1.60;66.50
41437;DHT22;27178;49.460;10.850;2023-02-28T03:29:15;1.60;66.50
41437;DHT22;27178;49.460;10.850;2023-02-28T03:31:49;1.60;66.60
41437;DHT22;27178;49.460;10.850;2023-02-28T03:34:22;1.60;66.60
41437;DHT22;27178;49.460;10.850;2023-02-28T03:36:59;1.60;66.50
41437;DHT22;27178;49.460;10.850;2023-02-28T03:39:34;1.60;66.70
41437;DHT22;27178;49.460;10.850;2023-02-28T03:42:08;1.60;66.60
41437;DHT22;27178;49.460;10.850;2023-02-28T03:44:40;1.60;67.50
41437;DHT22;27178;49.460;10.850;2023-02-28T03:47:11;1.60;66.70
41437;DHT22;27178;49.460;10.850;2023-02-28T03:49:43;1.60;66.70
41437;DHT22;27178;49.460;10.850;2023-02-28T03:52:17;1.50;66.70
41437;DHT22;27178;49.460;10.850;2023-02-28T03:54:51;1.50;66.70
41437;DHT22;27178;49.460;10.850;2023-02-28T03:57:25;1.50;66.80
41437;DHT22;27178;49.460;10.850;2023-02-28T03:59:57;1.50;66.80
41437;DHT22;27178;49.460;10.850;2023-02-28T04:02:27;1.50;66.80
41437;DHT22;27178;49.460;10.850;2023-02-28T04:04:56;1.50;66.70
41437;DHT22;27178;49.460;10.850;2023-02-28T04:07:29;1.50;66.70
41437;DHT22;27178;49.460;10.850;2023-02-28T04:09:57;1.50;67.00
41437;DHT22;27178;49.460;10.850;2023-02-28T04:12:26;1.50;67.00
41437;DHT22;27178;49.460;10.850;2023-02-28T04:14:54;1.50;67.10
41437;DHT22;27178;49.460;10.850;2023-02-28T04:17:23;1.50;67.00
41437;DHT22;27178;49.460;10.850;2023-02-28T04:19:51;1.50;67.10
41437;DHT22;27178;49.460;10.850;2023-02-28T04:22:21;1.50;67.10
41437;DHT22;27178;49.460;10.850;2023-02-28T04:24:50;1.50;67.10
41437;DHT22;27178;49.460;10.850;2023-02-28T04:27:21;1.50;67.10
41437;DHT22;27178;49.460;10.850;2023-02-28T04:29:49;1.50;67.10
41437;DHT22;27178;49.460;10.850;2023-02-28T04:32:17;1.50;67.00
41437;DHT22;27178;49.460;10.850;2023-02-28T04:34:46;1.50;67.20
41437;DHT22;27178;49.460;10.850;2023-02-28T04:37:14;1.50;67.20
41437;DHT22;27178;49.460;10.850;2023-02-28T04:39:43;1.50;67.00
41437;DHT22;27178;49.460;10.850;2023-02-28T04:42:13;1.50;67.10
41437;DHT22;27178;49.460;10.850;2023-02-28T04:44:41;1.50;67.30
41437;DHT22;27178;49.460;10.850;2023-02-28T04:47:10;1.50;67.30
41437;DHT22;27178;49.460;10.850;2023-02-28T04:49:38;1.50;67.30
41437;DHT22;27178;49.460;10.850;2023-02-28T04:52:08;1.50;67.20
41437;DHT22;27178;49.460;10.850;2023-02-28T04:54:37;1.60;67.30
41437;DHT22;27178;49.460;10.850;2023-02-28T04:57:07;1.60;67.40
41437;DHT22;27178;49.460;10.850;2023-02-28T04:59:37;1.60;67.30
41437;DHT22;27178;49.460;10.850;2023-02-28T05:02:05;1.60;67.40
41437;DHT22;27178;49.460;10.850;2023-02-28T05:04:34;1.60;67.30
41437;DHT22;27178;49.460;10.850;2023-02-28T05:07:03;1.60;67.40
41437;DHT22;27178;49.460;10.850;2023-02-28T05:09:32;1.60;67.10
41437;DHT22;27178;49.460;10.850;2023-02-28T05:12:01;1.60;67.40
41437;DHT22;27178;49.460;10.850;2023-02-28T05:14:30;1.60;67.40
41437;DHT22;27178;49.460;10.850;2023-02-28T05:17:00;1.50;67.40
41437;DHT22;27178;49.460;10.850;2023-02-28T05:19:28;1.50;67.40
41437;DHT22;27178;49.460;10.850;2023-02-28T05:21:56;1.50;67.50
41437;DHT22;27178;49.460;10.850;2023-02-28T05:24:25;1.60;67.60
41437;DHT22;27178;49.460;10.850;2023-02-28T05:26:54;1.50;67.30
41437;DHT22;27178;49.460;10.850;2023-02-28T05:29:22;1.50;67.40
41437;DHT22;27178;49.460;10.850;2023-02-28T05:31:51;1.50;67.60
41437;DHT22;27178;49.460;10.850;2023-02-28T05:34:21;1.50;67.80
41437;DHT22;27178;49.460;10.850;2023-02-28T05:36:49;1.50;67.70
41437;DHT22;27178;49.460;10.850;2023-02-28T05:39:18;1.50;67.80
41437;DHT22;27178;49.460;10.850;2023-02-28T05:41:46;1.60;67.80
41437;DHT22;27178;49.460;10.850;2023-02-28T05:44:15;1.50;67.80
41437;DHT22;27178;49.460;10.850;2023-02-28T05:46:43;1.50;67.90
41437;DHT22;27178;49.460;10.850;2023-02-28T05:49:12;1.60;68.00
41437;DHT22;27178;49.460;10.850;2023-02-28T05:51:42;1.50;67.90
41437;DHT22;27178;49.460;10.850;2023-02-28T05:54:10;1.50;67.90
41437;DHT22;27178;49.460;10.850;2023-02-28T05:56:39;1.50;67.90
41437;DHT22;27178;49.460;10.850;2023-02-28T05:59:10;1.50;68.00
41437;DHT22;27178;49.460;10.850;2023-02-28T06:01:40;1.50;67.90
41437;DHT22;27178;49.460;10.850;2023-02-28T06:04:09;1.60;68.20
41437;DHT22;27178;49.460;10.850;2023-02-28T06:06:58;1.50;68.20
41437;DHT22;27178;49.460;10.850;2023-02-28T06:09:26;1.60;68.10
41437;DHT22;27178;49.460;10.850;2023-02-28T06:11:54;1.60;68.20
41437;DHT22;27178;49.460;10.850;2023-02-28T06:14:22;1.60;68.20
41437;DHT22;27178;49.460;10.850;2023-02-28T06:16:50;1.60;68.10
41437;DHT22;27178;49.460;10.850;2023-02-28T06:19:19;1.60;68.00
41437;DHT22;27178;49.460;10.850;2023-02-28T06:21:50;1.60;68.10
41437;DHT22;27178;49.460;10.850;2023-02-28T06:24:20;1.60;68.20
41437;DHT22;27178;49.460;10.850;2023-02-28T06:26:49;1.60;68.30
41437;DHT22;27178;49.460;10.850;2023-02-28T06:29:17;1.60;69.20
41437;DHT22;27178;49.460;10.850;2023-02-28T06:31:46;1.60;68.30
41437;DHT22;27178;49.460;10.850;2023-02-28T06:34:15;1.60;68.40
41437;DHT22;27178;49.460;10.850;2023-02-28T06:36:44;1.60;68.40
41437;DHT22;27178;49.460;10.850;2023-02-28T06:39:12;1.70;68.50
41437;DHT22;27178;49.460;10.850;2023-02-28T06:41:43;1.70;68.50
41437;DHT22;27178;49.460;10.850;2023-02-28T06:44:22;1.70;68.60
41437;DHT22;27178;49.460;10.850;2023-02-28T06:46:50;1.70;68.60
41437;DHT22;27178;49.460;10.850;2023-02-28T06:49:18;1.70;68.50
41437;DHT22;27178;49.460;10.850;2023-02-28T06:51:47;1.70;68.50
41437;DHT22;27178;49.460;10.850;2023-02-28T06:54:15;1.70;68.50
41437;DHT22;27178;49.460;10.850;2023-02-28T06:56:45;1.80;68.40
41437;DHT22;27178;49.460;10.850;2023-02-28T06:59:14;1.70;68.40
41437;DHT22;27178;49.460;10.850;2023-02-28T07:01:43;1.80;68.40
41437;DHT22;27178;49.460;10.850;2023-02-28T07:04:12;1.80;68.40
41437;DHT22;27178;49.460;10.850;2023-02-28T07:06:41;1.80;68.50
41437;DHT22;27178;49.460;10.850;2023-02-28T07:09:09;1.80;68.40
41437;DHT22;27178;49.460;10.850;2023-02-28T07:11:38;1.80;68.40
41437;DHT22;27178;49.460;10.850;2023-02-28T07:14:09;1.90;68.50
41437;DHT22;27178;49.460;10.850;2023-02-28T07:16:37;1.90;68.60
41437;DHT22;27178;49.460;10.850;2023-02-28T07:19:06;1.90;68.50
41437;DHT22;27178;49.460;10.850;2023-02-28T07:21:34;1.90;68.40
41437;DHT22;27178;49.460;10.850;2023-02-28T07:24:02;1.90;68.40
41437;DHT22;27178;49.460;10.850;2023-02-28T07:26:31;2.00;68.50
41437;DHT22;27178;49.460;10.850;2023-02-28T07:29:00;2.00;68.70
41437;DHT22;27178;49.460;10.850;2023-02-28T07:31:30;2.00;68.60
41437;DHT22;27178;49.460;10.850;2023-02-28T07:33:59;2.00;68.70
41437;DHT22;27178;49.460;10.850;2023-02-28T07:36:27;2.10;68.60
41437;DHT22;27178;49.460;10.850;2023-02-28T07:38:56;2.10;68.60
41437;DHT22;27178;49.460;10.850;2023-02-28T07:41:25;2.20;68.80
41437;DHT22;27178;49.460;10.850;2023-02-28T07:43:55;2.20;68.70
41437;DHT22;27178;49.460;10.850;2023-02-28T07:46:24;2.20;68.60
41437;DHT22;27178;49.460;10.850;2023-02-28T07:48:57;2.30;68.60
41437;DHT22;27178;49.460;10.850;2023-02-28T07:51:26;2.30;68.60
41437;DHT22;27178;49.460;10.850;2023-02-28T07:53:56;2.40;68.50
41437;DHT22;27178;49.460;10.850;2023-02-28T07:56:25;2.40;68.60
41437;DHT22;27178;49.460;10.850;2023-02-28T07:58:54;2.40;68.50
41437;DHT22;27178;49.460;10.850;2023-02-28T08:01:22;2.40;68.30
41437;DHT22;27178;49.460;10.850;2023-02-28T08:03:51;2.50;68.40
41437;DHT22;27178;49.460;10.850;2023-02-28T08:06:24;2.50;68.40
41437;DHT22;27178;49.460;10.850;2023-02-28T08:08:53;2.60;68.50
41437;DHT22;27178;49.460;10.850;2023-02-28T08:11:23;2.60;68.30
41437;DHT22;27178;49.460;10.850;2023-02-28T08:13:51;2.70;68.40
41437;DHT22;27178;49.460;10.850;2023-02-28T08:16:19;2.70;68.30
41437;DHT22;27178;49.460;10.850;2023-02-28T08:18:50;2.80;68.30
41437;DHT22;27178;49.460;10.850;2023-02-28T08:21:19;2.80;68.50
41437;DHT22;27178;49.460;10.850;2023-02-28T08:23:49;2.80;68.30
41437;DHT22;27178;49.460;10.850;2023-02-28T08:26:19;2.90;68.30
41437;DHT22;27178;49.460;10.850;2023-02-28T08:28:47;3.00;68.20
41437;DHT22;27178;49.460;10.850;2023-02-28T08:31:16;3.00;68.10
41437;DHT22;27178;49.460;10.850;2023-02-28T08:33:45;3.10;68.10
41437;DHT22;27178;49.460;10.850;2023-02-28T08:36:15;3.10;68.10
41437;DHT22;27178;49.460;10.850;2023-02-28T08:38:44;3.20;68.10
41437;DHT22;27178;49.460;10.850;2023-02-28T08:41:14;3.20;67.90
41437;DHT22;27178;49.460;10.850;2023-02-28T08:43:42;3.30;67.70
41437;DHT22;27178;49.460;10.850;2023-02-28T08:46:12;3.30;67.60
41437;DHT22;27178;49.460;10.850;2023-02-28T08:48:41;3.40;67.50
41437;DHT22;27178;49.460;10.850;2023-02-28T08:51:13;3.40;67.20
41437;DHT22;27178;49.460;10.850;2023-02-28T08:53:43;3.50;67.20
41437;DHT22;27178;49.460;10.850;2023-02-28T08:56:13;3.50;66.90
41437;DHT22;27178;49.460;10.850;2023-02-28T08:58:44;3.60;67.00
41437;DHT22;27178;49.460;10.850;2023-02-28T09:01:15;3.60;66.90
41437;DHT22;27178;49.460;10.850;2023-02-28T09:03:44;3.60;66.60
41437;DHT22;27178;49.460;10.850;2023-02-28T09:06:14;3.70;66.60
41437;DHT22;27178;49.460;10.850;2023-02-28T09:08:43;3.70;66.60
41437;DHT22;27178;49.460;10.850;2023-02-28T09:11:13;3.80;66.40
41437;DHT22;27178;49.460;10.850;2023-02-28T09:13:42;3.90;66.40
41437;DHT22;27178;49.460;10.850;2023-02-28T09:16:12;3.90;66.30
41437;DHT22;27178;49.460;10.850;2023-02-28T09:18:41;4.00;66.40
41437;DHT22;27178;49.460;10.850;2023-02-28T09:21:13;4.00;66.10
41437;DHT22;27178;49.460;10.850;2023-02-28T09:23:43;4.10;66.10
41437;DHT22;27178;49.460;10.850;2023-02-28T09:26:15;4.10;65.90
41437;DHT22;27178;49.460;10.850;2023-02-28T09:28:44;4.20;65.70
41437;DHT22;27178;49.460;10.850;2023-02-28T09:31:13;4.20;65.40
41437;DHT22;27178;49.460;10.850;2023-02-28T09:33:42;4.30;65.50
41437;DHT22;27178;49.460;10.850;2023-02-28T09:36:11;4.30;65.30
41437;DHT22;27178;49.460;10.850;2023-02-28T09:38:40;4.40;65.10
41437;DHT22;27178;49.460;10.850;2023-02-28T09:41:14;4.40;65.10
41437;DHT22;27178;49.460;10.850;2023-02-28T09:43:46;4.50;65.00
41437;DHT22;27178;49.460;10.850;2023-02-28T09:46:25;4.50;64.80
41437;DHT22;27178;49.460;10.850;2023-02-28T09:48:56;4.60;64.80
41437;DHT22;27178;49.460;10.850;2023-02-28T09:51:45;4.60;64.40
41437;DHT22;27178;49.460;10.850;2023-02-28T09:54:18;4.60;64.40
41437;DHT22;27178;49.460;10.850;2023-02-28T09:56:50;4.70;64.50
41437;DHT22;27178;49.460;10.850;2023-02-28T09:59:31;4.70;64.30
41437;DHT22;27178;49.460;10.850;2023-02-28T10:02:13;4.80;64.10
41437;DHT22;27178;49.460;10.850;2023-02-28T10:04:47;4.80;64.10
41437;DHT22;27178;49.460;10.850;2023-02-28T10:07:32;4.90;63.90
41437;DHT22;27178;49.460;10.850;2023-02-28T10:10:20;4.90;63.90
41437;DHT22;27178;49.460;10.850;2023-02-28T10:12:52;5.00;63.60
41437;DHT22;27178;49.460;10.850;2023-02-28T10:15:24;5.00;63.70
41437;DHT22;27178;49.460;10.850;2023-02-28T10:17:56;5.10;63.90
41437;DHT22;27178;49.460;10.850;2023-02-28T10:20:37;5.10;63.70
41437;DHT22;27178;49.460;10.850;2023-02-28T10:23:12;5.20;63.60
41437;DHT22;27178;49.460;10.850;2023-02-28T10:25:43;5.30;63.30
41437;DHT22;27178;49.460;10.850;2023-02-28T10:28:17;5.40;63.30
41437;DHT22;27178;49.460;10.850;2023-02-28T10:30:48;5.40;63.00
41437;DHT22;27178;49.460;10.850;2023-02-28T10:33:23;5.50;63.00
41437;DHT22;27178;49.460;10.850;2023-02-28T10:35:52;5.60;62.90
41437;DHT22;27178;49.460;10.850;2023-02-28T10:38:23;5.70;62.50
41437;DHT22;27178;49.460;10.850;2023-02-28T10:41:03;5.70;62.40
41437;DHT22;27178;49.460;10.850;2023-02-28T10:43:36;5.80;62.30
41437;DHT22;27178;49.460;10.850;2023-02-28T10:46:13;5.90;62.60
41437;DHT22;27178;49.460;10.850;2023-02-28T10:48:44;6.00;62.30
41437;DHT22;27178;49.460;10.850;2023-02-28T10:51:16;6.10;62.00
41437;DHT22;27178;49.460;10.850;2023-02-28T10:53:48;6.20;61.80
41437;DHT22;27178;49.460;10.850;2023-02-28T10:56:28;6.30;61.70
41437;DHT22;27178;49.460;10.850;2023-02-28T10:59:01;6.40;61.60
41437;DHT22;27178;49.460;10.850;2023-02-28T11:01:38;6.40;61.30
41437;DHT22;27178;49.460;10.850;2023-02-28T11:04:18;6.50;61.00
41437;DHT22;27178;49.460;10.850;2023-02-28T11:06:56;6.60;60.60
41437;DHT22;27178;49.460;10.850;2023-02-28T11:09:29;6.70;60.50
41437;DHT22;27178;49.460;10.850;2023-02-28T11:11:59;6.80;60.70
41437;DHT22;27178;49.460;10.850;2023-02-28T11:14:30;6.90;60.50
41437;DHT22;27178;49.460;10.850;2023-02-28T11:17:13;7.00;60.30
41437;DHT22;27178;49.460;10.850;2023-02-28T11:19:51;7.10;60.00
41437;DHT22;27178;49.460;10.850;2023-02-28T11:22:24;7.20;60.00
41437;DHT22;27178;49.460;10.850;2023-02-28T11:24:59;7.30;59.90
41437;DHT22;27178;49.460;10.850;2023-02-28T11:27:47;7.40;59.60
41437;DHT22;27178;49.460;10.850;2023-02-28T11:30:30;7.50;59.10
41437;DHT22;27178;49.460;10.850;2023-02-28T11:32:59;7.60;58.90
41437;DHT22;27178;49.460;10.850;2023-02-28T11:35:31;7.70;59.30
41437;DHT22;27178;49.460;10.850;2023-02-28T11:38:01;7.80;59.10
41437;DHT22;27178;49.460;10.850;2023-02-28T11:40:38;7.90;59.10
41437;DHT22;27178;49.460;10.850;2023-02-28T11:43:20;8.00;59.00
41437;DHT22;27178;49.460;10.850;2023-02-28T11:46:05;8.20;58.80
41437;DHT22;27178;49.460;10.850;2023-02-28T11:48:45;8.30;58.60
41437;DHT22;27178;49.460;10.850;2023-02-28T11:51:19;8.40;58.60
41437;DHT22;27178;49.460;10.850;2023-02-28T11:53:56;8.50;58.30
41437;DHT22;27178;49.460;10.850;2023-02-28T11:56:31;8.70;58.30
41437;DHT22;27178;49.460;10.850;2023-02-28T11:59:13;8.80;57.80
41437;DHT22;27178;49.460;10.850;2023-02-28T12:02:05;8.90;57.70
41437;DHT22;27178;49.460;10.850;2023-02-28T12:04:42;9.00;57.60
41437;DHT22;27178;49.460;10.850;2023-02-28T12:07:18;9.10;57.50
41437;DHT22;27178;49.460;10.850;2023-02-28T12:10:00;9.30;57.60
41437;DHT22;27178;49.460;10.850;2023-02-28T12:12:41;9.40;57.20
41437;DHT22;27178;49.460;10.850;2023-02-28T12:15:32;9.60;57.70
41437;DHT22;27178;49.460;10.850;2023-02-28T12:21:02;9.90;56.30
41437;DHT22;27178;49.460;10.850;2023-02-28T12:23:46;10.10;56.70
41437;DHT22;27178;49.460;10.850;2023-02-28T12:26:22;10.20;56.10
41437;DHT22;27178;49.460;10.850;2023-02-28T12:28:53;10.30;56.40
41437;DHT22;27178;49.460;10.850;2023-02-28T12:31:27;10.50;56.30
41437;DHT22;27178;49.460;10.850;2023-02-28T12:34:01;10.60;56.00
41437;DHT22;27178;49.460;10.850;2023-02-28T12:36:30;10.70;55.40
41437;DHT22;27178;49.460;10.850;2023-02-28T12:39:02;10.80;55.60
41437;DHT22;27178;49.460;10.850;2023-02-28T12:41:36;10.90;55.50
41437;DHT22;27178;49.460;10.850;2023-02-28T12:44:09;11.10;55.10
41437;DHT22;27178;49.460;10.850;2023-02-28T12:46:42;11.20;54.90
41437;DHT22;27178;49.460;10.850;2023-02-28T12:49:17;11.30;55.00
41437;DHT22;27178;49.460;10.850;2023-02-28T12:51:46;11.40;54.80
41437;DHT22;27178;49.460;10.850;2023-02-28T12:54:21;11.60;55.00
41437;DHT22;27178;49.460;10.850;2023-02-28T12:56:58;11.70;54.10
41437;DHT22;27178;49.460;10.850;2023-02-28T12:59:35;11.80;54.00
41437;DHT22;27178;49.460;10.850;2023-02-28T13:02:27;12.00;54.10
41437;DHT22;27178;49.460;10.850;2023-02-28T13:11:05;12.40;52.90
41437;DHT22;27178;49.460;10.850;2023-02-28T13:13:47;12.60;53.90
41437;DHT22;27178;49.460;10.850;2023-02-28T13:16:15;12.70;53.80
41437;DHT22;27178;49.460;10.850;2023-02-28T13:18:46;12.80;53.60
41437;DHT22;27178;49.460;10.850;2023-02-28T13:21:22;13.00;53.10
41437;DHT22;27178;49.460;10.850;2023-02-28T13:24:01;13.10;52.80
41437;DHT22;27178;49.460;10.850;2023-02-28T13:29:59;13.40;51.60
41437;DHT22;27178;49.460;10.850;2023-02-28T13:32:33;13.50;52.40
41437;DHT22;27178;49.460;10.850;2023-02-28T13:38:31;13.70;51.00
41437;DHT22;27178;49.460;10.850;2023-02-28T13:44:06;13.90;51.40
41437;DHT22;27178;49.460;10.850;2023-02-28T13:46:36;14.00;52.00
41437;DHT22;27178;49.460;10.850;2023-02-28T13:49:25;14.20;51.70
41437;DHT22;27178;49.460;10.850;2023-02-28T13:52:02;14.30;50.80
41437;DHT22;27178;49.460;10.850;2023-02-28T13:54:43;14.40;50.90
41437;DHT22;27178;49.460;10.850;2023-02-28T13:57:23;14.50;50.80
41437;DHT22;27178;49.460;10.850;2023-02-28T14:00:02;14.70;50.70
41437;DHT22;27178;49.460;10.850;2023-02-28T14:02:48;14.80;50.40
41437;DHT22;27178;49.460;10.850;2023-02-28T14:05:21;14.90;50.50
41437;DHT22;27178;49.460;10.850;2023-02-28T14:07:55;15.00;50.50
41437;DHT22;27178;49.460;10.850;2023-02-28T14:10:27;15.10;50.40
41437;DHT22;27178;49.460;10.850;2023-02-28T14:13:02;15.10;49.90
41437;DHT22;27178;49.460;10.850;2023-02-28T14:15:40;15.30;49.80
41437;DHT22;27178;49.460;10.850;2023-02-28T14:18:34;15.40;48.90
41437;DHT22;27178;49.460;10.850;2023-02-28T14:21:14;15.50;49.00
41437;DHT22;27178;49.460;10.850;2023-02-28T14:24:10;15.60;49.50
41437;DHT22;27178;49.460;10.850;2023-02-28T14:27:04;15.70;49.00
41437;DHT22;27178;49.460;10.850;2023-02-28T14:30:03;15.80;48.90
41437;DHT22;27178;49.460;10.850;2023-02-28T14:32:41;15.90;48.30
41437;DHT22;27178;49.460;10.850;2023-02-28T14:35:26;16.00;48.60
41437;DHT22;27178;49.460;10.850;2023-02-28T14:37:57;16.10;47.90
41437;DHT22;27178;49.460;10.850;2023-02-28T14:40:28;16.10;48.50
41437;DHT22;27178;49.460;10.850;2023-02-28T14:42:59;16.20;48.50
41437;DHT22;27178;49.460;10.850;2023-02-28T14:45:29;16.30;48.40
41437;DHT22;27178;49.460;10.850;2023-02-28T14:48:00;16.30;47.70
41437;DHT22;27178;49.460;10.850;2023-02-28T14:50:31;16.40;47.70
41437;DHT22;27178;49.460;10.850;2023-02-28T14:53:00;16.40;47.60
41437;DHT22;27178;49.460;10.850;2023-02-28T14:55:31;16.40;47.80
41437;DHT22;27178;49.460;10.850;2023-02-28T14:58:01;16.50;47.50
41437;DHT22;27178;49.460;10.850;2023-02-28T15:00:32;16.50;47.50
41437;DHT22;27178;49.460;10.850;2023-02-28T15:03:18;16.50;47.10
41437;DHT22;27178;49.460;10.850;2023-02-28T15:05:55;16.50;46.00
41437;DHT22;27178;49.460;10.850;2023-02-28T15:08:24;16.60;46.70
41437;DHT22;27178;49.460;10.850;2023-02-28T15:10:58;16.60;47.10
41437;DHT22;27178;49.460;10.850;2023-02-28T15:13:36;16.60;47.00
41437;DHT22;27178;49.460;10.850;2023-02-28T15:16:08;16.60;46.20
41437;DHT22;27178;49.460;10.850;2023-02-28T15:18:44;16.60;46.40
41437;DHT22;27178;49.460;10.850;2023-02-28T15:21:17;16.60;45.80
41437;DHT22;27178;49.460;10.850;2023-02-28T15:23:52;16.60;47.10
41437;DHT22;27178;49.460;10.850;2023-02-28T15:26:22;16.50;45.90
41437;DHT22;27178;49.460;10.850;2023-02-28T15:28:58;16.50;45.90
41437;DHT22;27178;49.460;10.850;2023-02-28T15:31:29;16.50;46.10
41437;DHT22;27178;49.460;10.850;2023-02-28T15:34:19;16.50;45.70
41437;DHT22;27178;49.460;10.850;2023-02-28T15:36:50;16.50;45.30
41437;DHT22;27178;49.460;10.850;2023-02-28T15:39:21;16.40;45.70
41437;DHT22;27178;49.460;10.850;2023-02-28T15:41:51;16.30;45.70
41437;DHT22;27178;49.460;10.850;2023-02-28T15:44:27;16.20;45.20
41437;DHT22;27178;49.460;10.850;2023-02-28T15:47:01;16.00;44.90
41437;DHT22;27178;49.460;10.850;2023-02-28T15:49:38;15.80;45.00
41437;DHT22;27178;49.460;10.850;2023-02-28T15:52:15;15.60;44.50
41437;DHT22;27178;49.460;10.850;2023-02-28T15:54:45;15.30;45.00
41437;DHT22;27178;49.460;10.850;2023-02-28T15:57:18;15.00;45.00
41437;DHT22;27178;49.460;10.850;2023-02-28T15:59:51;14.60;45.10
41437;DHT22;27178;49.460;10.850;2023-02-28T16:02:22;14.40;45.20
41437;DHT22;27178;49.460;10.850;2023-02-28T16:05:01;14.10;45.40
41437;DHT22;27178;49.460;10.850;2023-02-28T16:07:29;13.80;45.40
41437;DHT22;27178;49.460;10.850;2023-02-28T16:09:58;13.50;45.60
41437;DHT22;27178;49.460;10.850;2023-02-28T16:12:28;13.30;45.80
41437;DHT22;27178;49.460;10.850;2023-02-28T16:14:58;13.00;45.90
41437;DHT22;27178;49.460;10.850;2023-02-28T16:17:31;12.80;46.20
41437;DHT22;27178;49.460;10.850;2023-02-28T16:20:11;12.50;46.40
41437;DHT22;27178;49.460;10.850;2023-02-28T16:22:41;12.30;46.40
41437;DHT22;27178;49.460;10.850;2023-02-28T16:25:11;12.10;46.70
41437;DHT22;27178;49.460;10.850;2023-02-28T16:27:40;12.00;46.70
41437;DHT22;27178;49.460;10.850;2023-02-28T16:30:17;11.80;46.80